This is the latest recevied weather packets stored in our database for station/object K1WJY. If no packets are shown the sender has not sent any weather packets the latest 10 day(s).
| Time | Temp. | Humidity | Pressure | Rain* | Wind** | Luminosity | Snow |
|---|---|---|---|---|---|---|---|
| 1777988220 | 15° C | 75% | 1011.3 hPa | 0 mm | - | 692 W/m² | - |
| 1777987917 | 15° C | 75% | 1011.7 hPa | 0 mm | - | 691 W/m² | - |
| 1777987612 | 14.44° C | 78% | 1011.6 hPa | 0 mm | - | 673 W/m² | - |
| 1777987311 | 13.89° C | 78% | 1011.5 hPa | 0 mm | - | 543 W/m² | - |
| 1777987007 | 13.89° C | 78% | 1011.5 hPa | 0 mm | - | 460 W/m² | - |
| 1777986705 | 13.89° C | 79% | 1011.8 hPa | 0 mm | - | 615 W/m² | - |
| 1777986403 | 13.89° C | 79% | 1011.5 hPa | 0 mm | - | 501 W/m² | - |
| 1777986101 | 13.89° C | 80% | 1011.7 hPa | 0 mm | - | 571 W/m² | - |
| 1777985797 | 13.33° C | 80% | 1011.8 hPa | 0 mm | - | 551 W/m² | - |
| 1777985495 | 13.89° C | 79% | 1011.8 hPa | 0 mm | - | 557 W/m² | - |
| 1777985191 | 13.89° C | 79% | 1011.7 hPa | 0 mm | - | 494 W/m² | - |
| 1777984887 | 13.33° C | 81% | 1011.7 hPa | 0 mm | - | 462 W/m² | - |
| 1777984583 | 12.78° C | 80% | 1011.7 hPa | 0 mm | - | 473 W/m² | - |
| 1777984280 | 12.78° C | 81% | 1011.9 hPa | 0 mm | - | 416 W/m² | - |
| 1777983977 | 12.78° C | 81% | 1011.7 hPa | 0 mm | - | 401 W/m² | - |
| 1777983674 | 12.78° C | 82% | 1011.7 hPa | 0 mm | - | 383 W/m² | - |
| 1777983370 | 12.78° C | 81% | 1011.8 hPa | 0 mm | - | 356 W/m² | - |
| 1777983068 | 12.78° C | 82% | 1011.8 hPa | 0 mm | - | 317 W/m² | - |
| 1777982764 | 12.78° C | 81% | 1011.7 hPa | 0 mm | - | 313 W/m² | - |
| 1777982460 | 12.22° C | 83% | 1011.7 hPa | 0 mm | - | 304 W/m² | - |
| 1777982154 | 12.22° C | 83% | 1011.7 hPa | 0 mm | - | 279 W/m² | - |
| 1777981852 | 11.67° C | 83% | 1011.7 hPa | 0 mm | - | 264 W/m² | - |
| 1777981549 | 11.67° C | 83% | 1011.8 hPa | 0 mm | - | 242 W/m² | - |
| 1777981245 | 11.67° C | 85% | 1011.7 hPa | 0 mm | - | 236 W/m² | - |
| 1777980941 | 11.67° C | 85% | 1011.7 hPa | 0 mm | - | 73 W/m² | - |
* Rain latest hour (hover to see other rain measurements)
** Current wind speed in m/s (hover to see current wind gust speed)